Etusivu
METAR-TAF:

METAR-TAF

Lentoasemat :

Changin kansainvälinen lentoasema

Singapore, Singapore

Leveyspiiri: 01-22N, Pituuspiiri: 103-59E, korkeus merenpinnasta: 5 m

Tämänhetkinen sää

Tämä raportti tehtiin 29 minuuttia sitten, kello 13.30 UTC
Tuuli 5 kn etelästä, vaihdellen etelän/kaakon ja lounaan välillä
Lämpötila 29°C
Kosteus 79%
Ilmanpaine 1010 hPa
Näkyvyys 10 km tai enemmän
Muutamia pilviä 2000 ft:n korkeudessa
Hajonneita pilviä 30000 ft:n korkeudessa

METAR: WSSS 231330Z 18005KT 160V230 9999 FEW020 BKN300 29/25 Q1010 NOSIG

Aika: 21:59 (13:59 UTC)

Sääennuste

Tämä raportti tehtiin 2 tuntia ja 59 minuuttia sitten, kello 11.00 UTC
Ennuste voimassa 23. päivästä klo 12 UTC - 24. päivään klo 18 UTC
Tuuli 8 kn etelästä/kaakosta
Näkyvyys 10 km tai enemmän
Muutamia pilviä 1500 ft:n korkeudessa
Hajanaisia pilviä 2000 ft:n korkeudessa

TAF: WSSS 231100Z 2312/2418 16008KT 9999 FEW015 SCT020

Säähavainnot ja -ennusteet yli 4000 lentoasemalta (METAR- ja TAF-raportit).

Käytössä olevat sääasemat on merkitty karttaan keltaisilla ja punaisilla pisteillä.

Aseta hiiri pisteen päälle nähdäksesi sääaseman nimen.

Klikkaa sitten nähdäksesi säähavainnot ja -ennusteet.

Kartan vaihtaminen: klikkaa mustalla rastilla varustettuja vihreitä pisteitä, niin voit zoomata sisään; viivalla varustettua vihreää pistettä, niin voit zoomata ulos tai vihreitä nuolia, niin pääset viereisille kartoille.


METAR-TAF: